Fort McMurray, Canada
Current Conditions -  °F | °C
As of 11:00 AM on Tuesday 21 Oct 2014 (Local Time) from CYMM Reporting Station
Broken Clouds Broken Clouds  
Wind Chill: 42°   Ceiling: 12000
Heat Index: 46°   Visibility: 9mi
Dew Point: 43°   Wind: 9mph
Humidity: 87%   Direction: 210°SSW
Pressure: 29.54"   Gusts: NA
Location:  56.73°N, 111.38°W
Report Text: CYMM 211700Z AUTO 21008KT 9SM BKN120 08/06 A2954 RMK SLP017
Loading
Personal Weather Stations






























Interactive Weather Map
Tropical Storm Tracking
New forecast layout! Learn more

10-Day Weather Forecast

Advertisements
Track Severe Weather on mobile